sensor_id;sensor_type;location;lat;lon;timestamp;P1;durP1;ratioP1;P2;durP2;ratioP2
22565;SDS011;11449;51.330;19.378;2022-09-27T00:03:41;96.05;;;38.05;;
22565;SDS011;11449;51.330;19.378;2022-09-27T00:08:42;91.97;;;35.30;;
22565;SDS011;11449;51.330;19.378;2022-09-27T00:13:43;91.15;;;32.58;;
22565;SDS011;11449;51.330;19.378;2022-09-27T00:18:44;118.35;;;30.02;;
22565;SDS011;11449;51.330;19.378;2022-09-27T00:23:45;63.48;;;25.10;;
22565;SDS011;11449;51.330;19.378;2022-09-27T00:28:46;104.05;;;24.35;;
22565;SDS011;11449;51.330;19.378;2022-09-27T00:33:47;61.50;;;23.67;;
22565;SDS011;11449;51.330;19.378;2022-09-27T00:38:49;44.38;;;22.87;;
22565;SDS011;11449;51.330;19.378;2022-09-27T00:43:51;39.65;;;21.70;;
22565;SDS011;11449;51.330;19.378;2022-09-27T00:49:35;110.00;;;23.87;;
22565;SDS011;11449;51.330;19.378;2022-09-27T00:53:59;49.77;;;22.32;;
22565;SDS011;11449;51.330;19.378;2022-09-27T00:59:11;47.23;;;22.30;;
22565;SDS011;11449;51.330;19.378;2022-09-27T01:04:09;78.83;;;25.68;;
22565;SDS011;11449;51.330;19.378;2022-09-27T01:09:11;147.13;;;23.35;;
22565;SDS011;11449;51.330;19.378;2022-09-27T01:40:30;196.72;;;21.02;;
22565;SDS011;11449;51.330;19.378;2022-09-27T01:51:06;149.75;;;20.30;;
22565;SDS011;11449;51.330;19.378;2022-09-27T01:55:59;50.98;;;20.02;;
22565;SDS011;11449;51.330;19.378;2022-09-27T02:01:13;55.60;;;19.00;;
22565;SDS011;11449;51.330;19.378;2022-09-27T02:06:21;190.88;;;20.32;;
22565;SDS011;11449;51.330;19.378;2022-09-27T02:11:27;185.00;;;22.80;;
22565;SDS011;11449;51.330;19.378;2022-09-27T02:16:49;215.35;;;24.52;;
22565;SDS011;11449;51.330;19.378;2022-09-27T02:21:55;282.23;;;23.25;;
22565;SDS011;11449;51.330;19.378;2022-09-27T02:27:00;228.37;;;23.52;;
22565;SDS011;11449;51.330;19.378;2022-09-27T02:32:00;110.30;;;21.07;;
22565;SDS011;11449;51.330;19.378;2022-09-27T02:37:02;127.70;;;19.87;;
22565;SDS011;11449;51.330;19.378;2022-09-27T02:42:03;129.12;;;19.50;;
22565;SDS011;11449;51.330;19.378;2022-09-27T02:52:25;190.62;;;18.65;;
22565;SDS011;11449;51.330;19.378;2022-09-27T03:02:56;172.98;;;17.65;;
22565;SDS011;11449;51.330;19.378;2022-09-27T03:08:06;108.72;;;15.40;;
22565;SDS011;11449;51.330;19.378;2022-09-27T03:13:08;138.60;;;13.88;;
22565;SDS011;11449;51.330;19.378;2022-09-27T03:18:10;130.00;;;12.07;;
22565;SDS011;11449;51.330;19.378;2022-09-27T03:23:21;123.82;;;12.50;;
22565;SDS011;11449;51.330;19.378;2022-09-27T03:28:22;109.20;;;13.53;;
22565;SDS011;11449;51.330;19.378;2022-09-27T03:33:24;200.25;;;14.23;;
22565;SDS011;11449;51.330;19.378;2022-09-27T03:38:27;106.87;;;12.35;;
22565;SDS011;11449;51.330;19.378;2022-09-27T03:43:28;60.10;;;11.25;;
22565;SDS011;11449;51.330;19.378;2022-09-27T03:48:31;101.02;;;12.33;;
22565;SDS011;11449;51.330;19.378;2022-09-27T03:53:32;54.13;;;12.20;;
22565;SDS011;11449;51.330;19.378;2022-09-27T03:58:33;119.65;;;12.65;;
22565;SDS011;11449;51.330;19.378;2022-09-27T04:03:34;67.20;;;11.78;;
22565;SDS011;11449;51.330;19.378;2022-09-27T04:08:53;33.33;;;11.70;;
22565;SDS011;11449;51.330;19.378;2022-09-27T04:13:55;26.17;;;12.78;;
22565;SDS011;11449;51.330;19.378;2022-09-27T04:18:57;41.23;;;12.53;;
22565;SDS011;11449;51.330;19.378;2022-09-27T04:24:06;22.27;;;11.10;;
22565;SDS011;11449;51.330;19.378;2022-09-27T04:29:07;31.97;;;11.08;;
22565;SDS011;11449;51.330;19.378;2022-09-27T04:34:11;31.05;;;13.03;;
22565;SDS011;11449;51.330;19.378;2022-09-27T04:39:14;38.00;;;12.05;;
22565;SDS011;11449;51.330;19.378;2022-09-27T04:44:16;34.83;;;11.60;;
22565;SDS011;11449;51.330;19.378;2022-09-27T04:49:19;25.65;;;11.50;;
22565;SDS011;11449;51.330;19.378;2022-09-27T04:54:20;27.25;;;10.68;;
22565;SDS011;11449;51.330;19.378;2022-09-27T04:59:23;21.05;;;11.10;;
22565;SDS011;11449;51.330;19.378;2022-09-27T05:04:25;23.95;;;10.90;;
22565;SDS011;11449;51.330;19.378;2022-09-27T05:09:26;21.45;;;10.15;;
22565;SDS011;11449;51.330;19.378;2022-09-27T05:14:29;19.52;;;11.65;;
22565;SDS011;11449;51.330;19.378;2022-09-27T05:19:44;23.85;;;11.57;;
22565;SDS011;11449;51.330;19.378;2022-09-27T05:24:53;25.70;;;11.80;;
22565;SDS011;11449;51.330;19.378;2022-09-27T05:29:54;22.32;;;12.58;;
22565;SDS011;11449;51.330;19.378;2022-09-27T05:34:58;24.67;;;13.10;;
22565;SDS011;11449;51.330;19.378;2022-09-27T05:39:59;20.70;;;12.65;;
22565;SDS011;11449;51.330;19.378;2022-09-27T05:45:00;25.25;;;14.25;;
22565;SDS011;11449;51.330;19.378;2022-09-27T05:50:02;26.35;;;14.05;;
22565;SDS011;11449;51.330;19.378;2022-09-27T05:55:03;25.77;;;14.28;;
22565;SDS011;11449;51.330;19.378;2022-09-27T06:00:05;33.15;;;13.10;;
22565;SDS011;11449;51.330;19.378;2022-09-27T06:05:17;22.48;;;13.80;;
22565;SDS011;11449;51.330;19.378;2022-09-27T06:10:33;22.98;;;14.03;;
22565;SDS011;11449;51.330;19.378;2022-09-27T06:15:36;21.17;;;14.68;;
22565;SDS011;11449;51.330;19.378;2022-09-27T06:20:39;22.17;;;14.73;;
22565;SDS011;11449;51.330;19.378;2022-09-27T06:25:42;24.72;;;15.18;;
22565;SDS011;11449;51.330;19.378;2022-09-27T06:30:54;24.43;;;15.80;;
22565;SDS011;11449;51.330;19.378;2022-09-27T06:36:06;27.93;;;17.75;;
22565;SDS011;11449;51.330;19.378;2022-09-27T06:41:09;28.20;;;19.17;;
22565;SDS011;11449;51.330;19.378;2022-09-27T06:46:12;27.25;;;17.62;;
22565;SDS011;11449;51.330;19.378;2022-09-27T06:51:17;28.42;;;18.30;;
22565;SDS011;11449;51.330;19.378;2022-09-27T06:56:20;28.35;;;19.35;;
22565;SDS011;11449;51.330;19.378;2022-09-27T07:01:31;27.20;;;18.35;;
22565;SDS011;11449;51.330;19.378;2022-09-27T07:06:44;30.30;;;19.12;;
22565;SDS011;11449;51.330;19.378;2022-09-27T07:11:47;28.27;;;18.82;;
22565;SDS011;11449;51.330;19.378;2022-09-27T07:16:48;26.70;;;17.55;;
22565;SDS011;11449;51.330;19.378;2022-09-27T07:21:51;28.73;;;18.77;;
22565;SDS011;11449;51.330;19.378;2022-09-27T07:26:52;21.45;;;15.72;;
22565;SDS011;11449;51.330;19.378;2022-09-27T07:31:55;24.35;;;15.72;;
22565;SDS011;11449;51.330;19.378;2022-09-27T07:36:59;22.55;;;15.10;;
22565;SDS011;11449;51.330;19.378;2022-09-27T07:42:02;22.52;;;15.30;;
22565;SDS011;11449;51.330;19.378;2022-09-27T07:47:07;23.52;;;15.48;;
22565;SDS011;11449;51.330;19.378;2022-09-27T07:52:22;23.35;;;15.38;;
22565;SDS011;11449;51.330;19.378;2022-09-27T07:57:37;23.12;;;14.90;;
22565;SDS011;11449;51.330;19.378;2022-09-27T08:02:38;21.55;;;14.23;;
22565;SDS011;11449;51.330;19.378;2022-09-27T08:07:40;19.75;;;13.55;;
22565;SDS011;11449;51.330;19.378;2022-09-27T08:12:41;20.82;;;14.18;;
22565;SDS011;11449;51.330;19.378;2022-09-27T08:17:42;21.07;;;14.07;;
22565;SDS011;11449;51.330;19.378;2022-09-27T08:22:48;18.57;;;13.90;;
22565;SDS011;11449;51.330;19.378;2022-09-27T08:27:55;18.52;;;12.25;;
22565;SDS011;11449;51.330;19.378;2022-09-27T08:33:04;18.00;;;12.63;;
22565;SDS011;11449;51.330;19.378;2022-09-27T08:38:05;20.40;;;12.75;;
22565;SDS011;11449;51.330;19.378;2022-09-27T08:43:14;20.00;;;13.25;;
22565;SDS011;11449;51.330;19.378;2022-09-27T08:48:14;17.15;;;12.25;;
22565;SDS011;11449;51.330;19.378;2022-09-27T08:58:34;18.75;;;12.03;;
22565;SDS011;11449;51.330;19.378;2022-09-27T09:03:49;18.57;;;12.43;;
22565;SDS011;11449;51.330;19.378;2022-09-27T09:09:10;17.50;;;12.28;;
22565;SDS011;11449;51.330;19.378;2022-09-27T09:14:12;16.67;;;11.55;;
22565;SDS011;11449;51.330;19.378;2022-09-27T09:24:26;16.35;;;12.15;;
22565;SDS011;11449;51.330;19.378;2022-09-27T09:34:37;13.32;;;9.98;;
22565;SDS011;11449;51.330;19.378;2022-09-27T09:39:53;14.33;;;10.75;;
22565;SDS011;11449;51.330;19.378;2022-09-27T09:45:00;13.78;;;9.25;;
22565;SDS011;11449;51.330;19.378;2022-09-27T09:50:03;11.80;;;8.80;;
22565;SDS011;11449;51.330;19.378;2022-09-27T09:55:06;11.30;;;7.70;;
22565;SDS011;11449;51.330;19.378;2022-09-27T10:00:14;12.45;;;8.43;;
22565;SDS011;11449;51.330;19.378;2022-09-27T10:05:19;14.25;;;8.75;;
22565;SDS011;11449;51.330;19.378;2022-09-27T10:10:22;10.32;;;8.00;;
22565;SDS011;11449;51.330;19.378;2022-09-27T10:15:30;13.43;;;8.60;;
22565;SDS011;11449;51.330;19.378;2022-09-27T10:20:38;8.30;;;7.22;;
22565;SDS011;11449;51.330;19.378;2022-09-27T10:25:49;9.50;;;7.22;;
22565;SDS011;11449;51.330;19.378;2022-09-27T10:31:04;10.38;;;7.75;;
22565;SDS011;11449;51.330;19.378;2022-09-27T10:36:21;10.25;;;7.10;;
22565;SDS011;11449;51.330;19.378;2022-09-27T10:41:15;9.50;;;6.90;;
22565;SDS011;11449;51.330;19.378;2022-09-27T10:51:29;11.75;;;8.45;;
22565;SDS011;11449;51.330;19.378;2022-09-27T10:56:33;19.25;;;9.65;;
22565;SDS011;11449;51.330;19.378;2022-09-27T11:01:44;15.35;;;8.65;;
22565;SDS011;11449;51.330;19.378;2022-09-27T11:07:05;16.55;;;8.28;;
22565;SDS011;11449;51.330;19.378;2022-09-27T11:12:09;13.35;;;7.10;;
22565;SDS011;11449;51.330;19.378;2022-09-27T11:17:24;14.45;;;7.87;;
22565;SDS011;11449;51.330;19.378;2022-09-27T11:22:36;12.98;;;7.15;;
22565;SDS011;11449;51.330;19.378;2022-09-27T11:48:26;9.43;;;5.55;;
22565;SDS011;11449;51.330;19.378;2022-09-27T11:53:32;7.80;;;5.70;;
22565;SDS011;11449;51.330;19.378;2022-09-27T11:58:36;7.67;;;5.58;;
22565;SDS011;11449;51.330;19.378;2022-09-27T12:14:02;8.33;;;5.28;;
22565;SDS011;11449;51.330;19.378;2022-09-27T12:19:01;8.53;;;5.00;;
22565;SDS011;11449;51.330;19.378;2022-09-27T12:24:05;7.58;;;5.20;;
22565;SDS011;11449;51.330;19.378;2022-09-27T12:29:13;7.30;;;4.87;;
22565;SDS011;11449;51.330;19.378;2022-09-27T12:39:36;6.80;;;4.37;;
22565;SDS011;11449;51.330;19.378;2022-09-27T12:44:37;7.92;;;5.97;;
22565;SDS011;11449;51.330;19.378;2022-09-27T12:50:02;4.22;;;3.83;;
22565;SDS011;11449;51.330;19.378;2022-09-27T12:54:49;5.33;;;4.00;;
22565;SDS011;11449;51.330;19.378;2022-09-27T12:59:59;4.00;;;3.60;;
22565;SDS011;11449;51.330;19.378;2022-09-27T13:10:39;5.20;;;4.20;;
22565;SDS011;11449;51.330;19.378;2022-09-27T13:15:42;5.95;;;4.53;;
22565;SDS011;11449;51.330;19.378;2022-09-27T13:20:44;137.22;;;68.42;;
22565;SDS011;11449;51.330;19.378;2022-09-27T13:26:01;22.48;;;6.37;;
22565;SDS011;11449;51.330;19.378;2022-09-27T13:31:09;23.62;;;6.55;;
22565;SDS011;11449;51.330;19.378;2022-09-27T13:41:22;18.42;;;5.97;;
22565;SDS011;11449;51.330;19.378;2022-09-27T13:46:28;21.00;;;6.95;;
22565;SDS011;11449;51.330;19.378;2022-09-27T13:51:35;20.68;;;7.40;;
22565;SDS011;11449;51.330;19.378;2022-09-27T14:06:50;19.40;;;7.60;;
22565;SDS011;11449;51.330;19.378;2022-09-27T14:11:53;19.20;;;7.62;;
22565;SDS011;11449;51.330;19.378;2022-09-27T14:16:55;19.87;;;7.65;;
22565;SDS011;11449;51.330;19.378;2022-09-27T14:21:58;20.10;;;7.50;;
22565;SDS011;11449;51.330;19.378;2022-09-27T14:32:15;19.85;;;7.70;;
22565;SDS011;11449;51.330;19.378;2022-09-27T14:37:24;17.10;;;7.85;;
22565;SDS011;11449;51.330;19.378;2022-09-27T14:42:27;16.65;;;7.53;;
22565;SDS011;11449;51.330;19.378;2022-09-27T14:47:28;21.80;;;10.72;;
22565;SDS011;11449;51.330;19.378;2022-09-27T14:52:30;16.52;;;8.10;;
22565;SDS011;11449;51.330;19.378;2022-09-27T14:57:32;19.87;;;8.78;;
22565;SDS011;11449;51.330;19.378;2022-09-27T15:02:35;16.15;;;7.62;;
22565;SDS011;11449;51.330;19.378;2022-09-27T15:07:37;15.53;;;7.90;;
22565;SDS011;11449;51.330;19.378;2022-09-27T15:12:39;19.37;;;10.25;;
22565;SDS011;11449;51.330;19.378;2022-09-27T15:17:41;18.75;;;11.03;;
22565;SDS011;11449;51.330;19.378;2022-09-27T15:22:43;40.60;;;17.65;;
22565;SDS011;11449;51.330;19.378;2022-09-27T15:27:49;18.87;;;8.50;;
22565;SDS011;11449;51.330;19.378;2022-09-27T15:32:48;25.72;;;8.13;;
22565;SDS011;11449;51.330;19.378;2022-09-27T15:37:49;26.82;;;9.60;;
22565;SDS011;11449;51.330;19.378;2022-09-27T15:42:54;17.80;;;6.95;;
22565;SDS011;11449;51.330;19.378;2022-09-27T15:48:04;19.25;;;7.20;;
22565;SDS011;11449;51.330;19.378;2022-09-27T15:52:59;13.35;;;5.22;;
22565;SDS011;11449;51.330;19.378;2022-09-27T15:58:06;12.75;;;4.78;;
22565;SDS011;11449;51.330;19.378;2022-09-27T16:03:08;19.57;;;6.15;;
22565;SDS011;11449;51.330;19.378;2022-09-27T16:08:09;21.42;;;6.72;;
22565;SDS011;11449;51.330;19.378;2022-09-27T16:13:11;20.40;;;6.25;;
22565;SDS011;11449;51.330;19.378;2022-09-27T16:18:12;49.42;;;26.25;;
22565;SDS011;11449;51.330;19.378;2022-09-27T16:23:13;17.07;;;7.20;;
22565;SDS011;11449;51.330;19.378;2022-09-27T16:28:15;16.82;;;6.50;;
22565;SDS011;11449;51.330;19.378;2022-09-27T16:33:16;20.32;;;5.75;;
22565;SDS011;11449;51.330;19.378;2022-09-27T16:38:17;16.17;;;5.28;;
22565;SDS011;11449;51.330;19.378;2022-09-27T16:43:18;14.20;;;3.90;;
22565;SDS011;11449;51.330;19.378;2022-09-27T16:48:20;17.07;;;4.35;;
22565;SDS011;11449;51.330;19.378;2022-09-27T16:53:21;16.00;;;4.55;;
22565;SDS011;11449;51.330;19.378;2022-09-27T16:58:22;14.85;;;3.75;;
22565;SDS011;11449;51.330;19.378;2022-09-27T17:03:23;24.35;;;7.80;;
22565;SDS011;11449;51.330;19.378;2022-09-27T17:08:27;26.30;;;8.50;;
22565;SDS011;11449;51.330;19.378;2022-09-27T17:13:28;22.30;;;8.38;;
22565;SDS011;11449;51.330;19.378;2022-09-27T17:18:28;18.02;;;5.90;;
22565;SDS011;11449;51.330;19.378;2022-09-27T17:23:30;21.68;;;8.68;;
22565;SDS011;11449;51.330;19.378;2022-09-27T17:28:31;46.42;;;20.23;;
22565;SDS011;11449;51.330;19.378;2022-09-27T17:33:32;39.70;;;13.18;;
22565;SDS011;11449;51.330;19.378;2022-09-27T17:38:35;32.13;;;12.88;;
22565;SDS011;11449;51.330;19.378;2022-09-27T17:43:36;92.90;;;32.25;;
22565;SDS011;11449;51.330;19.378;2022-09-27T17:48:38;45.88;;;15.38;;
22565;SDS011;11449;51.330;19.378;2022-09-27T17:53:58;40.08;;;11.95;;
22565;SDS011;11449;51.330;19.378;2022-09-27T17:58:59;35.52;;;17.20;;
22565;SDS011;11449;51.330;19.378;2022-09-27T18:04:00;38.23;;;13.90;;
22565;SDS011;11449;51.330;19.378;2022-09-27T18:09:02;32.78;;;11.28;;
22565;SDS011;11449;51.330;19.378;2022-09-27T18:14:03;33.85;;;11.85;;
22565;SDS011;11449;51.330;19.378;2022-09-27T18:19:05;32.10;;;12.35;;
22565;SDS011;11449;51.330;19.378;2022-09-27T18:24:07;53.68;;;23.02;;
22565;SDS011;11449;51.330;19.378;2022-09-27T18:29:13;33.00;;;12.55;;
22565;SDS011;11449;51.330;19.378;2022-09-27T18:34:12;31.20;;;12.18;;
22565;SDS011;11449;51.330;19.378;2022-09-27T18:39:14;40.65;;;17.92;;
22565;SDS011;11449;51.330;19.378;2022-09-27T18:44:17;27.52;;;11.63;;
22565;SDS011;11449;51.330;19.378;2022-09-27T18:49:18;23.57;;;11.30;;
22565;SDS011;11449;51.330;19.378;2022-09-27T18:54:19;42.58;;;27.10;;
22565;SDS011;11449;51.330;19.378;2022-09-27T18:59:21;46.50;;;23.22;;
22565;SDS011;11449;51.330;19.378;2022-09-27T19:04:23;33.30;;;13.55;;
22565;SDS011;11449;51.330;19.378;2022-09-27T19:09:25;36.00;;;14.40;;
22565;SDS011;11449;51.330;19.378;2022-09-27T19:14:26;42.70;;;17.50;;
22565;SDS011;11449;51.330;19.378;2022-09-27T19:19:29;39.67;;;16.02;;
22565;SDS011;11449;51.330;19.378;2022-09-27T19:24:29;25.80;;;11.43;;
22565;SDS011;11449;51.330;19.378;2022-09-27T19:29:30;34.25;;;15.00;;
22565;SDS011;11449;51.330;19.378;2022-09-27T19:34:31;39.08;;;13.68;;
22565;SDS011;11449;51.330;19.378;2022-09-27T19:39:32;42.15;;;21.35;;
22565;SDS011;11449;51.330;19.378;2022-09-27T19:44:33;39.63;;;20.97;;
22565;SDS011;11449;51.330;19.378;2022-09-27T19:49:34;24.77;;;12.65;;
22565;SDS011;11449;51.330;19.378;2022-09-27T19:54:35;28.73;;;10.80;;
22565;SDS011;11449;51.330;19.378;2022-09-27T19:59:36;116.62;;;29.90;;
22565;SDS011;11449;51.330;19.378;2022-09-27T20:04:37;30.92;;;9.00;;
22565;SDS011;11449;51.330;19.378;2022-09-27T20:09:38;33.90;;;12.07;;
22565;SDS011;11449;51.330;19.378;2022-09-27T20:14:39;34.80;;;12.78;;
22565;SDS011;11449;51.330;19.378;2022-09-27T20:19:42;49.25;;;11.95;;
22565;SDS011;11449;51.330;19.378;2022-09-27T20:24:43;41.73;;;12.00;;
22565;SDS011;11449;51.330;19.378;2022-09-27T20:29:44;52.58;;;20.30;;
22565;SDS011;11449;51.330;19.378;2022-09-27T20:34:45;52.95;;;17.82;;
22565;SDS011;11449;51.330;19.378;2022-09-27T20:39:47;31.90;;;10.35;;
22565;SDS011;11449;51.330;19.378;2022-09-27T20:44:48;32.98;;;11.45;;
22565;SDS011;11449;51.330;19.378;2022-09-27T20:49:49;27.62;;;8.33;;
22565;SDS011;11449;51.330;19.378;2022-09-27T20:54:50;37.40;;;8.73;;
22565;SDS011;11449;51.330;19.378;2022-09-27T20:59:51;34.92;;;10.70;;
22565;SDS011;11449;51.330;19.378;2022-09-27T21:04:53;31.30;;;8.98;;
22565;SDS011;11449;51.330;19.378;2022-09-27T21:09:53;52.83;;;14.80;;
22565;SDS011;11449;51.330;19.378;2022-09-27T21:14:55;159.22;;;85.03;;
22565;SDS011;11449;51.330;19.378;2022-09-27T21:19:56;39.83;;;18.25;;
22565;SDS011;11449;51.330;19.378;2022-09-27T21:24:57;39.33;;;19.62;;
22565;SDS011;11449;51.330;19.378;2022-09-27T21:29:57;22.20;;;13.48;;
22565;SDS011;11449;51.330;19.378;2022-09-27T21:34:59;16.20;;;11.05;;
22565;SDS011;11449;51.330;19.378;2022-09-27T21:40:00;19.73;;;11.35;;
22565;SDS011;11449;51.330;19.378;2022-09-27T21:45:03;22.52;;;13.72;;
22565;SDS011;11449;51.330;19.378;2022-09-27T21:50:05;19.20;;;12.20;;
22565;SDS011;11449;51.330;19.378;2022-09-27T21:55:06;33.20;;;14.18;;
22565;SDS011;11449;51.330;19.378;2022-09-27T22:00:07;19.45;;;13.90;;
22565;SDS011;11449;51.330;19.378;2022-09-27T22:05:09;18.87;;;11.95;;
22565;SDS011;11449;51.330;19.378;2022-09-27T22:10:10;19.62;;;12.53;;
22565;SDS011;11449;51.330;19.378;2022-09-27T22:15:11;15.58;;;10.45;;
22565;SDS011;11449;51.330;19.378;2022-09-27T22:20:12;14.78;;;10.13;;
22565;SDS011;11449;51.330;19.378;2022-09-27T22:25:13;15.13;;;10.03;;
22565;SDS011;11449;51.330;19.378;2022-09-27T22:30:14;12.75;;;8.70;;
22565;SDS011;11449;51.330;19.378;2022-09-27T22:35:16;15.38;;;10.03;;
22565;SDS011;11449;51.330;19.378;2022-09-27T22:40:17;14.95;;;8.35;;
22565;SDS011;11449;51.330;19.378;2022-09-27T22:45:18;12.23;;;8.65;;
22565;SDS011;11449;51.330;19.378;2022-09-27T22:50:19;12.10;;;8.53;;
22565;SDS011;11449;51.330;19.378;2022-09-27T22:55:20;14.03;;;8.85;;
22565;SDS011;11449;51.330;19.378;2022-09-27T23:00:21;13.95;;;7.72;;
22565;SDS011;11449;51.330;19.378;2022-09-27T23:05:22;13.58;;;8.30;;
22565;SDS011;11449;51.330;19.378;2022-09-27T23:10:23;13.03;;;7.85;;
22565;SDS011;11449;51.330;19.378;2022-09-27T23:15:25;13.40;;;7.97;;
22565;SDS011;11449;51.330;19.378;2022-09-27T23:20:26;13.40;;;7.83;;
22565;SDS011;11449;51.330;19.378;2022-09-27T23:25:26;10.05;;;6.97;;
22565;SDS011;11449;51.330;19.378;2022-09-27T23:30:27;11.48;;;6.97;;
22565;SDS011;11449;51.330;19.378;2022-09-27T23:35:30;15.68;;;6.90;;
22565;SDS011;11449;51.330;19.378;2022-09-27T23:40:33;11.08;;;6.87;;
22565;SDS011;11449;51.330;19.378;2022-09-27T23:45:35;11.38;;;6.30;;
22565;SDS011;11449;51.330;19.378;2022-09-27T23:50:36;9.95;;;6.58;;
22565;SDS011;11449;51.330;19.378;2022-09-27T23:55:37;14.07;;;7.45;;
